Time,TemperatureF,DewpointF,PressureIn,WindDirection,WindDirectionDegrees,WindSpeedMPH,WindSpeedGustMPH,Humidity,HourlyPrecipIn,Conditions,Clouds,dailyrainin,SoftwareType,DateUTC
2013-09-19 00:23:00,73.0,72.0,29.67,SE,140,6.0,-999.0,94,-99.99,,,-99.99,,2013-09-19 05:23:00,
2013-09-19 00:43:00,73.0,72.0,29.67,SE,140,6.0,-999.0,94,-99.99,,,-99.99,,2013-09-19 05:43:00,
2013-09-19 01:22:00,73.0,72.0,29.67,SE,140,5.0,-999.0,94,-99.99,,,-99.99,,2013-09-19 06:22:00,
2013-09-19 01:43:00,73.0,72.0,29.66,SE,140,6.0,-999.0,94,-99.99,,,-99.99,,2013-09-19 06:43:00,
2013-09-19 02:22:00,73.0,72.0,29.67,SE,140,6.0,-999.0,94,-99.99,,,-99.99,,2013-09-19 07:22:00,
2013-09-19 02:42:00,73.0,72.0,29.67,SSE,150,7.0,-999.0,94,-99.99,,,-99.99,,2013-09-19 07:42:00,
2013-09-19 03:22:00,73.0,70.0,29.66,SSE,160,8.0,-999.0,88,-99.99,,,-99.99,,2013-09-19 08:22:00,
2013-09-19 03:42:00,73.0,70.0,29.68,North,0,0.0,-999.0,88,-99.99,,,-99.99,,2013-09-19 08:42:00,
2013-09-19 04:21:00,72.0,70.0,29.65,SSE,160,7.0,-999.0,94,-99.99,,,-99.99,,2013-09-19 09:21:00,
2013-09-19 04:43:00,72.0,70.0,29.65,North,0,0.0,-999.0,94,-99.99,,,-99.99,,2013-09-19 09:43:00,
2013-09-19 05:23:00,72.0,68.0,29.67,North,0,0.0,-999.0,88,-99.99,,,-99.99,,2013-09-19 10:23:00,
2013-09-19 05:43:00,72.0,70.0,29.67,WSW,240,8.0,-999.0,94,-99.99,,,-99.99,,2013-09-19 10:43:00,
2013-09-19 06:22:00,70.0,70.0,29.67,West,260,15.0,27.0,100,-99.99,,,-99.99,,2013-09-19 11:22:00,
2013-09-19 06:42:00,70.0,68.0,29.68,West,280,22.0,30.0,94,-99.99,,,-99.99,,2013-09-19 11:42:00,
2013-09-19 07:21:00,66.0,66.0,29.74,West,260,6.0,-999.0,100,-99.99,,,-99.99,,2013-09-19 12:21:00,
2013-09-19 07:43:00,66.0,66.0,29.65,NNW,340,16.0,29.0,100,-99.99,,,-99.99,,2013-09-19 12:43:00,
2013-09-19 08:22:00,66.0,66.0,29.72,NNW,340,7.0,-999.0,100,-99.99,,,-99.99,,2013-09-19 13:22:00,
2013-09-19 08:42:00,66.0,66.0,29.74,North,350,9.0,-999.0,100,-99.99,,,-99.99,,2013-09-19 13:42:00,
2013-09-19 09:22:00,66.0,66.0,29.79,North,0,0.0,-999.0,100,-99.99,,,-99.99,,2013-09-19 14:22:00,
2013-09-19 09:42:00,68.0,68.0,29.78,West,280,6.0,-999.0,100,-99.99,,,-99.99,,2013-09-19 14:42:00,
2013-09-19 10:22:00,66.0,66.0,29.78,West,280,9.0,-999.0,100,-99.99,,,-99.99,,2013-09-19 15:22:00,
2013-09-19 10:43:00,68.0,68.0,29.81,NW,310,8.0,-999.0,100,-99.99,,,-99.99,,2013-09-19 15:43:00,
2013-09-19 10:53:00,68.0,68.0,29.81,NW,310,8.0,-999.0,100,-99.99,,,-99.99,,2013-09-19 15:53:00,
2013-09-19 11:04:00,68.0,68.0,29.81,NW,310,8.0,-999.0,100,-99.99,,,-99.99,,2013-09-19 16:04:00,
2013-09-19 11:24:00,68.0,66.0,29.83,NW,320,10.0,-999.0,93,-99.99,,,-99.99,,2013-09-19 16:24:00,
2013-09-19 11:43:00,66.0,64.0,29.85,NW,310,16.0,21.0,93,-99.99,,,-99.99,,2013-09-19 16:43:00,
2013-09-19 12:23:00,66.0,64.0,29.87,NNW,340,10.0,16.0,93,-99.99,,,-99.99,,2013-09-19 17:23:00,
2013-09-19 12:42:00,66.0,63.0,29.88,NW,320,13.0,-999.0,88,-99.99,,,-99.99,,2013-09-19 17:42:00,
2013-09-19 13:22:00,68.0,63.0,29.88,NNW,330,10.0,16.0,82,-99.99,,,-99.99,,2013-09-19 18:22:00,
2013-09-19 13:42:00,70.0,63.0,29.88,NNW,330,13.0,-999.0,77,-99.99,,,-99.99,,2013-09-19 18:42:00,
2013-09-19 13:52:00,72.0,61.0,29.88,NNW,330,13.0,17.0,68,-99.99,,,-99.99,,2013-09-19 18:52:00,
2013-09-19 14:02:00,72.0,61.0,29.88,NNW,330,13.0,17.0,68,-99.99,,,-99.99,,2013-09-19 19:02:00,
2013-09-19 14:22:00,72.0,61.0,29.88,NW,320,14.0,22.0,68,-99.99,,,-99.99,,2013-09-19 19:22:00,
2013-09-19 14:42:00,73.0,59.0,29.88,NW,310,13.0,18.0,60,-99.99,,,-99.99,,2013-09-19 19:42:00,
2013-09-19 15:22:00,73.0,57.0,29.87,WNW,300,13.0,22.0,56,-99.99,,,-99.99,,2013-09-19 20:22:00,
2013-09-19 15:42:00,72.0,57.0,29.88,WNW,300,15.0,23.0,60,-99.99,,,-99.99,,2013-09-19 20:42:00,
2013-09-19 16:22:00,72.0,55.0,29.90,WNW,290,16.0,25.0,56,-99.99,,,-99.99,,2013-09-19 21:22:00,
2013-09-19 16:44:00,72.0,54.0,29.90,WNW,290,25.0,-999.0,53,-99.99,,,-99.99,,2013-09-19 21:44:00,
2013-09-19 17:24:00,66.0,54.0,29.92,West,270,23.0,32.0,63,-99.99,,,-99.99,,2013-09-19 22:24:00,
2013-09-19 17:42:00,64.0,57.0,29.94,WNW,290,14.0,28.0,77,-99.99,,,-99.99,,2013-09-19 22:42:00,
2013-09-19 18:22:00,63.0,55.0,29.92,WNW,300,10.0,18.0,77,-99.99,,,-99.99,,2013-09-19 23:22:00,
2013-09-19 18:43:00,61.0,57.0,29.91,NW,320,9.0,-999.0,87,-99.99,,,-99.99,,2013-09-19 23:43:00,
2013-09-19 19:22:00,57.0,57.0,29.93,WNW,290,10.0,-999.0,100,-99.99,,,-99.99,,2013-09-20 00:22:00,
2013-09-19 19:42:00,59.0,57.0,29.92,NW,310,8.0,-999.0,93,-99.99,,,-99.99,,2013-09-20 00:42:00,
2013-09-19 20:22:00,57.0,55.0,29.93,WNW,300,8.0,-999.0,93,-99.99,,,-99.99,,2013-09-20 01:22:00,
2013-09-19 20:42:00,57.0,55.0,29.93,WNW,300,8.0,-999.0,93,-99.99,,,-99.99,,2013-09-20 01:42:00,
2013-09-19 21:22:00,57.0,54.0,29.95,WNW,290,7.0,-999.0,87,-99.99,,,-99.99,,2013-09-20 02:22:00,
2013-09-19 21:42:00,57.0,54.0,29.96,WNW,290,9.0,-999.0,87,-99.99,,,-99.99,,2013-09-20 02:42:00,
2013-09-19 22:23:00,55.0,54.0,29.97,NW,310,7.0,-999.0,93,-99.99,,,-99.99,,2013-09-20 03:23:00,
2013-09-19 22:45:00,55.0,52.0,29.98,WNW,290,8.0,-999.0,87,-99.99,,,-99.99,,2013-09-20 03:45:00,
2013-09-19 23:24:00,55.0,52.0,29.99,WNW,300,8.0,-999.0,87,-99.99,,,-99.99,,2013-09-20 04:24:00,
2013-09-19 23:44:00,55.0,50.0,29.99,WNW,300,7.0,-999.0,81,-99.99,,,-99.99,,2013-09-20 04:44:00,